Time;durP1;ratioP1;P1;durP2;ratioP2;P2;SDS_P1;SDS_P2;PMS_P1;PMS_P2;Temp;Humidity;BMP_temperature;BMP_pressure;BME280_temperature;BME280_humidity;BME280_pressure;Samples;Min_cycle;Max_cycle;Signal;HPM_P1;HPM_P2
2022/12/26 00:02:53;;;;;;;14.95;9.85;;;;;;;9.72;100.00;99975.77;2835401;83;21033;-81
2022/12/26 00:06:55;;;;;;;18.32;8.90;;;;;;;9.77;100.00;99977.55;2891071;81;21056;-81
2022/12/26 00:10:57;;;;;;;10.58;7.37;;;;;;;9.85;100.00;99956.52;2853121;82;21022;-82
2022/12/26 00:14:59;;;;;;;8.18;7.03;;;;;;;9.81;100.00;99945.77;2860860;82;21021;-82
2022/12/26 00:19:02;;;;;;;14.35;8.48;;;;;;;9.88;100.00;99955.89;2826778;82;21014;-82
2022/12/26 00:23:03;;;;;;;13.35;5.97;;;;;;;9.87;100.00;99959.02;2860462;81;21025;-82
2022/12/26 00:27:05;;;;;;;9.33;6.58;;;;;;;9.77;100.00;99969.58;2861879;82;21006;-82
2022/12/26 00:31:13;;;;;;;13.05;8.73;;;;;;;9.75;100.00;99962.23;2894970;80;21645;-91
2022/12/26 00:35:15;;;;;;;12.53;7.00;;;;;;;9.80;100.00;99962.67;2933465;80;21042;-91
2022/12/26 00:39:17;;;;;;;12.82;9.65;;;;;;;9.84;100.00;99961.47;2934067;80;21548;-92
2022/12/26 00:43:18;;;;;;;15.83;9.78;;;;;;;9.96;100.00;99963.58;2931769;80;21000;-92
2022/12/26 00:47:20;;;;;;;12.63;7.25;;;;;;;9.95;100.00;99953.06;2933612;80;21008;-91
2022/12/26 00:51:21;;;;;;;10.45;7.08;;;;;;;9.96;100.00;99962.72;2856800;80;21003;-91
2022/12/26 00:55:23;;;;;;;10.70;7.37;;;;;;;9.96;100.00;99957.41;2940223;80;21043;-91
2022/12/26 00:59:24;;;;;;;12.85;7.72;;;;;;;10.09;100.00;99966.03;2939168;80;21050;-91
2022/12/26 01:03:26;;;;;;;9.83;6.28;;;;;;;10.07;100.00;99975.95;2894664;80;21049;-90
2022/12/26 01:07:27;;;;;;;8.90;5.95;;;;;;;10.17;100.00;99959.20;2936054;80;20963;-92
2022/12/26 01:11:41;;;;;;;9.40;5.92;;;;;;;10.08;100.00;99955.05;2973208;78;21557;-92
2022/12/26 01:15:49;;;;;;;7.72;6.08;;;;;;;10.11;100.00;99958.77;2935637;80;20987;-91
2022/12/26 01:19:51;;;;;;;15.78;9.63;;;;;;;10.01;100.00;99936.59;2904070;81;21087;-92
2022/12/26 01:23:53;;;;;;;10.00;8.15;;;;;;;9.96;100.00;99925.52;2904368;81;21037;-93
2022/12/26 01:27:55;;;;;;;10.23;6.55;;;;;;;9.95;99.83;99930.48;2904829;79;21821;-92
2022/12/26 01:31:56;;;;;;;7.90;5.37;;;;;;;9.94;99.40;99946.07;2885616;80;21081;-95
2022/12/26 01:35:58;;;;;;;10.95;8.13;;;;;;;9.96;99.14;99937.48;2931439;79;21028;-94
2022/12/26 01:39:59;;;;;;;9.43;6.65;;;;;;;9.91;99.18;99923.25;2810115;82;21106;-95
2022/12/26 01:44:05;;;;;;;9.68;6.67;;;;;;;9.98;99.03;99939.52;2924431;80;21034;-93
2022/12/26 01:48:20;;;;;;;11.80;8.03;;;;;;;10.03;99.06;99949.77;2922200;78;21033;-94
2022/12/26 01:52:26;;;;;;;10.58;6.75;;;;;;;10.03;98.68;99947.96;2927422;79;20977;-93
2022/12/26 01:56:33;;;;;;;9.40;7.05;;;;;;;10.02;98.33;99935.61;2901857;80;21565;-95
2022/12/26 02:00:37;;;;;;;12.93;9.40;;;;;;;10.02;98.27;99920.17;2929982;80;21732;-95
2022/12/26 02:09:04;;;;;;;10.10;8.88;;;;;;;10.01;98.10;99908.69;2909680;79;21042;-94
2022/12/26 02:13:06;;;;;;;14.05;9.40;;;;;;;9.99;98.93;99896.88;2937683;80;21053;-94
2022/12/26 02:17:07;;;;;;;13.22;9.68;;;;;;;9.99;99.52;99873.44;2941968;79;21569;-93
2022/12/26 02:21:35;;;;;;;11.78;8.93;;;;;;;10.02;99.64;99905.05;2934783;79;21030;-93
2022/12/26 02:26:10;;;;;;;15.40;8.78;;;;;;;10.02;99.21;99905.56;2928222;80;21045;-94
2022/12/26 02:30:38;;;;;;;13.08;9.90;;;;;;;10.06;98.83;99904.31;2914866;80;21050;-92
2022/12/26 02:35:20;;;;;;;15.40;10.30;;;;;;;10.04;98.74;99893.84;2915393;80;21580;-93
2022/12/26 02:39:57;;;;;;;11.78;9.73;;;;;;;10.02;98.42;99874.50;2632671;89;21684;-95
2022/12/26 02:49:27;;;;;;;12.03;9.20;;;;;;;9.98;98.59;99873.09;2616811;90;21086;-93
2022/12/26 03:20:33;;;;;;;15.85;8.28;;;;;;;10.23;98.28;99859.02;2923158;79;21403;-93
2022/12/26 03:26:38;;;;;;;12.00;8.80;;;;;;;10.22;98.13;99845.34;2886249;78;21034;-93
2022/12/26 03:28:39;;;;;;;12.58;10.05;;;;;;;10.25;98.12;99833.14;2918113;79;20986;-95
2022/12/26 03:32:44;;;;;;;12.82;8.93;;;;;;;10.27;98.14;99829.86;2893731;80;21049;-94
2022/12/26 03:37:12;;;;;;;13.00;10.23;;;;;;;10.27;98.43;99837.83;2937954;79;21533;-95
2022/12/26 04:45:20;;;;;;;15.10;8.75;;;;;;;10.39;100.00;99811.98;2943054;80;21047;-94
2022/12/26 04:53:42;;;;;;;16.00;9.85;;;;;;;10.46;99.71;99801.17;2942570;79;21371;-96
2022/12/26 04:57:43;;;;;;;11.10;7.55;;;;;;;10.42;99.01;99807.27;2913574;80;21017;-90
2022/12/26 05:10:28;;;;;;;10.72;8.88;;;;;;;10.44;98.75;99792.49;2927013;79;20999;-94
2022/12/26 05:14:30;;;;;;;12.70;10.05;;;;;;;10.46;98.77;99799.02;2922238;80;21073;-94
2022/12/26 05:31:34;;;;;;;11.00;8.70;;;;;;;10.52;98.07;99807.29;2912666;78;20971;-94
2022/12/26 05:35:37;;;;;;;11.83;8.08;;;;;;;10.48;98.37;99807.70;2922336;80;21699;-93
2022/12/26 05:39:38;;;;;;;15.63;10.08;;;;;;;10.49;98.38;99811.53;2890669;80;20990;-93
2022/12/26 05:43:40;;;;;;;8.00;7.17;;;;;;;10.48;98.64;99823.14;2923002;80;21026;-94
2022/12/26 05:47:41;;;;;;;9.80;8.78;;;;;;;10.44;98.54;99823.07;2920292;78;21002;-94
2022/12/26 05:51:42;;;;;;;11.08;8.50;;;;;;;10.48;98.68;99827.13;2928004;80;21384;-94
2022/12/26 05:55:44;;;;;;;9.85;8.85;;;;;;;10.43;98.16;99838.67;2934300;80;21607;-95
2022/12/26 05:59:45;;;;;;;12.68;8.83;;;;;;;10.47;98.10;99840.08;2924336;80;21033;-96
2022/12/26 06:03:49;;;;;;;11.12;9.23;;;;;;;10.41;98.20;99840.63;2905034;80;22362;-95
2022/12/26 06:07:51;;;;;;;12.37;10.98;;;;;;;10.41;98.16;99834.80;2926082;79;21576;-94
2022/12/26 06:11:52;;;;;;;11.48;9.30;;;;;;;10.41;98.15;99836.14;2927365;79;21017;-95
2022/12/26 06:15:54;;;;;;;12.47;9.73;;;;;;;10.38;98.39;99837.70;2923210;80;20986;-93
2022/12/26 06:19:55;;;;;;;9.73;8.58;;;;;;;10.36;98.37;99846.31;2926193;80;21084;-94
2022/12/26 06:23:56;;;;;;;9.80;7.30;;;;;;;10.34;98.17;99844.28;2934039;78;21030;-93
2022/12/26 06:27:58;;;;;;;12.70;8.40;;;;;;;10.29;98.75;99851.83;2925557;80;20998;-92
2022/12/26 06:31:59;;;;;;;13.03;8.85;;;;;;;10.26;99.17;99848.94;2929805;78;21042;-94
2022/12/26 06:36:08;;;;;;;12.70;9.93;;;;;;;10.23;99.24;99850.55;2913317;79;21019;-93
2022/12/26 06:40:10;;;;;;;12.50;8.68;;;;;;;10.19;99.49;99846.95;2876781;81;21029;-94
2022/12/26 06:44:11;;;;;;;10.98;7.50;;;;;;;10.21;99.70;99851.64;2933783;79;21560;-94
2022/12/26 06:48:12;;;;;;;8.40;6.95;;;;;;;10.21;99.70;99854.30;2869472;81;20992;-93
2022/12/26 06:52:21;;;;;;;9.98;7.50;;;;;;;10.27;99.62;99845.81;2870417;81;21051;-93
2022/12/26 06:56:26;;;;;;;7.45;6.72;;;;;;;10.32;99.61;99851.55;2901418;80;21029;-92
2022/12/26 07:00:28;;;;;;;7.47;5.07;;;;;;;10.39;99.56;99865.16;2881045;80;21035;-93
2022/12/26 07:04:30;;;;;;;7.72;6.92;;;;;;;10.48;99.04;99862.20;2892529;80;20969;-93
2022/12/26 07:08:33;;;;;;;6.55;5.90;;;;;;;10.57;98.50;99867.55;2894039;81;20989;-93
2022/12/26 07:12:34;;;;;;;9.45;6.62;;;;;;;10.64;98.30;99875.83;2901671;80;21029;-93
2022/12/26 07:16:38;;;;;;;5.80;5.17;;;;;;;10.63;98.20;99862.66;2904699;81;21074;-94
2022/12/26 07:20:39;;;;;;;7.20;5.47;;;;;;;10.63;98.16;99852.88;2894207;81;21022;-93
2022/12/26 07:24:40;;;;;;;7.03;5.03;;;;;;;10.69;98.39;99859.44;2796306;81;21149;-94
2022/12/26 07:28:42;;;;;;;5.75;4.83;;;;;;;10.75;98.54;99867.36;2900284;81;21557;-94
2022/12/26 07:32:43;;;;;;;7.58;5.60;;;;;;;10.80;97.87;99859.33;2882292;81;21117;-93
2022/12/26 07:36:45;;;;;;;5.17;4.67;;;;;;;10.88;97.75;99855.98;2864357;81;21041;-93
2022/12/26 07:40:46;;;;;;;5.85;4.53;;;;;;;10.99;97.48;99862.48;2863294;81;21542;-93
2022/12/26 07:44:47;;;;;;;6.15;4.25;;;;;;;11.06;96.99;99869.94;2868880;81;20994;-94
2022/12/26 07:48:49;;;;;;;7.22;4.85;;;;;;;11.07;96.49;99864.45;2863610;81;21567;-94
2022/12/26 07:52:50;;;;;;;5.25;4.42;;;;;;;11.08;96.53;99858.15;2869560;80;21038;-93
2022/12/26 07:56:51;;;;;;;4.37;3.95;;;;;;;11.18;96.24;99860.81;2867724;81;21069;-94
2022/12/26 08:00:53;;;;;;;8.63;7.03;;;;;;;11.28;96.07;99859.48;2858434;81;20999;-96
2022/12/26 08:04:55;;;;;;;9.28;6.62;;;;;;;11.36;95.68;99866.29;2845729;82;21068;-93
2022/12/26 08:08:56;;;;;;;8.80;5.80;;;;;;;11.45;95.22;99865.08;2823785;83;21027;-92
2022/12/26 08:12:58;;;;;;;5.92;4.40;;;;;;;11.49;94.87;99873.13;2832273;82;21070;-90
2022/12/26 08:16:59;;;;;;;6.50;4.72;;;;;;;11.49;94.39;99864.66;2817530;82;21002;-90
2022/12/26 08:21:00;;;;;;;6.40;4.65;;;;;;;11.47;94.11;99873.77;2845158;80;21013;-89
2022/12/26 08:25:02;;;;;;;5.97;4.35;;;;;;;11.35;94.26;99884.58;2841760;83;21840;-90
2022/12/26 08:29:03;;;;;;;8.60;5.70;;;;;;;11.31;95.19;99894.31;2870518;82;21521;-91
2022/12/26 08:33:04;;;;;;;13.72;7.10;;;;;;;11.24;95.70;99880.24;2870586;81;21020;-90
2022/12/26 08:37:06;;;;;;;5.40;4.35;;;;;;;11.32;95.68;99889.34;2871222;81;21021;-92
2022/12/26 08:41:08;;;;;;;5.40;4.25;;;;;;;11.38;95.97;99895.42;2846685;82;21508;-91
2022/12/26 08:45:09;;;;;;;7.35;6.47;;;;;;;11.40;95.94;99882.84;2868368;82;21081;-91
2022/12/26 08:49:11;;;;;;;7.65;5.75;;;;;;;11.46;95.85;99884.92;2848021;83;21581;-91
2022/12/26 08:53:12;;;;;;;9.10;6.35;;;;;;;11.47;95.51;99888.41;2856641;81;21071;-93
2022/12/26 08:57:14;;;;;;;8.00;6.58;;;;;;;11.51;95.52;99894.66;2819181;83;21038;-94
2022/12/26 09:01:23;;;;;;;8.13;6.40;;;;;;;11.62;95.94;99907.48;2831421;82;21003;-95
2022/12/26 09:05:25;;;;;;;6.62;4.65;;;;;;;11.71;95.90;99903.48;2836306;83;21153;-94
2022/12/26 09:09:26;;;;;;;5.87;5.28;;;;;;;11.89;95.12;99908.55;2809202;83;21043;-94
2022/12/26 09:13:28;;;;;;;6.50;5.50;;;;;;;12.02;94.00;99903.80;2827083;83;21058;-95
2022/12/26 09:17:29;;;;;;;5.55;4.53;;;;;;;12.13;93.14;99903.60;2828128;83;21031;-95
2022/12/26 09:21:32;;;;;;;7.22;5.65;;;;;;;12.26;92.88;99907.78;2852803;80;20989;-95
2022/12/26 09:25:34;;;;;;;9.43;5.12;;;;;;;12.46;92.70;99904.52;2871496;81;21001;-94
2022/12/26 09:29:37;;;;;;;6.47;4.53;;;;;;;12.65;92.66;99897.41;2872742;81;21032;-94
2022/12/26 09:33:38;;;;;;;6.47;5.25;;;;;;;12.84;91.91;99906.64;2812831;82;21141;-94
2022/12/26 09:37:40;;;;;;;5.42;4.30;;;;;;;13.08;91.56;99906.58;2900719;79;21069;-93
2022/12/26 09:42:07;;;;;;;4.22;3.25;;;;;;;13.27;91.69;99908.76;2820556;80;21041;-94
2022/12/26 09:46:22;;;;;;;5.55;4.08;;;;;;;13.50;91.87;99926.51;2926203;80;20978;-96
2022/12/26 09:50:34;;;;;;;7.22;4.78;;;;;;;13.66;90.80;99921.81;2924219;79;21037;-95
2022/12/26 09:54:43;;;;;;;6.58;3.42;;;;;;;13.82;91.64;99885.48;2926497;80;21517;-95
2022/12/26 09:58:55;;;;;;;4.08;3.55;;;;;;;13.97;89.15;99877.75;2888106;79;72151;-60
2022/12/26 10:02:58;;;;;;;3.20;2.87;;;;;;;14.08;89.07;99882.80;2849355;81;21025;-61
2022/12/26 10:07:14;;;;;;;5.55;2.47;;;;;;;14.09;89.34;99887.16;2860533;81;21009;-60
2022/12/26 10:11:27;;;;;;;2.93;2.63;;;;;;;14.11;87.26;99879.81;2844216;82;21046;-59
2022/12/26 10:15:58;;;;;;;2.37;2.17;;;;;;;14.10;85.92;99871.45;2806783;82;21479;-61
2022/12/26 10:20:25;;;;;;;3.00;2.30;;;;;;;14.12;86.16;99856.59;2848374;82;20940;-63
2022/12/26 10:24:32;;;;;;;2.33;1.90;;;;;;;14.08;85.17;99871.29;2841851;82;21065;-61
2022/12/26 10:28:45;;;;;;;12.95;2.70;;;;;;;14.06;86.50;99860.73;2852219;82;21042;-61
2022/12/26 10:32:52;;;;;;;2.67;1.85;;;;;;;14.17;85.30;99874.33;2850754;82;21030;-64
2022/12/26 10:37:19;;;;;;;2.87;2.00;;;;;;;14.30;85.68;99870.39;2843416;82;20975;-61
2022/12/26 10:41:43;;;;;;;3.00;1.82;;;;;;;14.40;84.88;99885.31;2856044;82;21002;-60
2022/12/26 10:45:56;;;;;;;2.27;1.80;;;;;;;14.49;84.58;99892.03;2856560;81;20979;-94
2022/12/26 11:02:31;;;;;;;2.10;1.92;;;;;;;14.66;83.00;99867.00;2791844;81;21074;-96
2022/12/26 11:06:40;;;;;;;2.92;1.87;;;;;;;14.64;83.35;99874.84;2790463;83;21102;-94
2022/12/26 11:11:02;;;;;;;4.03;1.92;;;;;;;14.65;83.43;99876.03;2784685;83;21011;-96
2022/12/26 11:15:26;;;;;;;2.15;1.42;;;;;;;14.50;82.84;99873.14;2829618;81;70595;-63
2022/12/26 11:19:35;;;;;;;2.25;1.75;;;;;;;14.36;82.65;99875.09;2872201;82;21087;-62
2022/12/26 11:23:37;;;;;;;2.80;1.82;;;;;;;14.29;84.17;99881.57;2863966;83;21492;-60
2022/12/26 11:27:56;;;;;;;5.67;1.77;;;;;;;14.27;83.27;99863.52;2851272;82;20994;-60
2022/12/26 11:32:03;;;;;;;2.30;1.77;;;;;;;14.21;83.37;99856.95;2863115;82;21017;-63
2022/12/26 11:36:25;;;;;;;1.45;1.17;;;;;;;14.31;84.02;99846.65;2844369;82;20988;-65
2022/12/26 11:40:35;;;;;;;4.58;2.60;;;;;;;14.42;83.71;99833.81;2848954;82;21066;-64
2022/12/26 11:44:41;;;;;;;2.15;1.40;;;;;;;14.61;82.90;99825.17;2862452;82;20971;-60
2022/12/26 11:48:50;;;;;;;4.90;2.02;;;;;;;14.68;81.82;99835.55;2924558;78;72445;-94
2022/12/26 11:53:00;;;;;;;5.25;1.47;;;;;;;14.68;81.51;99843.58;2945968;78;21451;-91
2022/12/26 11:57:32;;;;;;;2.12;1.52;;;;;;;14.67;82.87;99843.24;2985253;78;21043;-96
2022/12/26 12:01:33;;;;;;;3.87;1.82;;;;;;;14.68;82.44;99835.55;2989239;78;21010;-95
2022/12/26 12:05:46;;;;;;;3.05;2.05;;;;;;;14.60;83.02;99840.04;2978141;77;21329;-91
2022/12/26 12:09:56;;;;;;;2.45;1.65;;;;;;;14.61;82.75;99841.72;3016263;78;21374;-95
2022/12/26 12:14:30;;;;;;;2.52;2.02;;;;;;;14.56;82.71;99840.89;2855399;81;21026;-93
2022/12/26 12:18:52;;;;;;;3.58;2.55;;;;;;;14.52;82.95;99838.17;2896111;80;21077;-95
2022/12/26 12:23:16;;;;;;;2.12;1.40;;;;;;;14.54;82.75;99842.38;2867087;81;21334;-91
2022/12/26 12:27:26;;;;;;;3.55;1.80;;;;;;;14.61;83.31;99851.08;2891754;81;21069;-94
2022/12/26 12:31:49;;;;;;;2.12;1.45;;;;;;;14.59;81.62;99861.12;2876939;81;20998;-93
2022/12/26 12:36:20;;;;;;;2.60;2.05;;;;;;;14.69;82.98;99861.83;2860698;80;21164;-90
2022/12/26 12:41:03;;;;;;;2.47;2.25;;;;;;;14.70;82.51;99843.42;2848164;81;21086;-90
2022/12/26 12:45:21;;;;;;;4.15;3.00;;;;;;;14.67;82.22;99844.58;2850575;82;21046;-90
2022/12/26 12:50:03;;;;;;;3.67;2.17;;;;;;;14.62;82.28;99848.25;2686231;85;21728;-90
2022/12/26 12:54:34;;;;;;;2.65;1.67;;;;;;;14.59;83.20;99839.22;2701008;87;21097;-90
2022/12/26 12:58:50;;;;;;;3.80;2.33;;;;;;;14.53;83.41;99843.38;2695543;87;21040;-90
2022/12/26 13:02:59;;;;;;;3.70;1.70;;;;;;;14.50;84.00;99843.70;2680955;87;21047;-91
2022/12/26 13:07:07;;;;;;;4.40;2.00;;;;;;;14.41;83.18;99843.33;2645895;87;21015;-91
2022/12/26 13:11:23;;;;;;;2.75;1.67;;;;;;;14.32;84.95;99855.83;2686882;85;21130;-90
2022/12/26 13:15:32;;;;;;;2.02;1.85;;;;;;;14.30;84.90;99854.34;2719744;85;21207;-91
2022/12/26 13:20:06;;;;;;;5.00;3.30;;;;;;;14.27;84.08;99855.00;2759316;84;21017;-91
2022/12/26 13:24:25;;;;;;;4.80;3.42;;;;;;;14.36;84.72;99854.53;2763760;82;21014;-90
2022/12/26 13:28:30;;;;;;;5.62;2.72;;;;;;;14.36;85.07;99863.05;2913247;79;21286;-90
2022/12/26 13:32:32;;;;;;;4.25;2.98;;;;;;;14.35;84.32;99858.22;2921741;79;21333;-90
2022/12/26 13:36:42;;;;;;;4.45;2.72;;;;;;;14.31;84.11;99856.83;2932300;79;21543;-91
2022/12/26 13:40:53;;;;;;;4.35;2.45;;;;;;;14.14;84.10;99863.44;2899664;80;21070;-91
2022/12/26 13:44:59;;;;;;;3.92;2.62;;;;;;;14.07;84.11;99862.92;2917222;79;20992;-91
2022/12/26 13:49:00;;;;;;;8.08;4.35;;;;;;;14.00;84.68;99861.38;2968400;78;21659;-90
2022/12/26 13:53:03;;;;;;;6.70;3.50;;;;;;;13.93;84.38;99849.63;3026987;78;21057;-90
2022/12/26 13:57:10;;;;;;;5.65;2.60;;;;;;;13.89;85.56;99849.61;2985705;78;20975;-90
2022/12/26 14:01:43;;;;;;;4.12;3.22;;;;;;;13.77;85.50;99843.20;3033460;78;21012;-91
2022/12/26 14:06:19;;;;;;;4.60;2.77;;;;;;;13.71;85.20;99857.18;3017718;77;21597;-90
2022/12/26 14:10:46;;;;;;;3.30;2.80;;;;;;;13.63;86.01;99854.47;3006599;77;21025;-90
2022/12/26 14:15:05;;;;;;;4.40;2.37;;;;;;;13.58;85.43;99854.10;2981999;79;21533;-91
2022/12/26 14:19:36;;;;;;;5.15;2.90;;;;;;;13.59;85.69;99854.44;2986531;77;21569;-91
2022/12/26 14:23:58;;;;;;;2.45;2.20;;;;;;;13.58;85.67;99862.13;3035657;78;21572;-90
2022/12/26 14:28:22;;;;;;;4.05;2.22;;;;;;;13.50;86.00;99857.03;3003928;78;20999;-90
2022/12/26 14:32:49;;;;;;;2.60;2.27;;;;;;;13.39;85.39;99858.61;2989681;78;20994;-90
2022/12/26 14:37:00;;;;;;;;;;;;;;;13.29;85.73;99860.85;2969521;78;21002;-91
2022/12/26 14:43:09;;;;;;;4.40;2.67;;;;;;;13.28;85.68;99862.36;3031127;78;20153;-91
2022/12/26 14:45:30;;;;;;;3.72;2.70;;;;;;;13.26;86.06;99861.64;3037458;76;21592;-90
2022/12/26 14:49:37;;;;;;;3.55;3.15;;;;;;;13.20;86.13;99859.59;3022715;77;20986;-91
2022/12/26 14:53:39;;;;;;;3.08;2.08;;;;;;;13.16;85.50;99854.23;3030172;78;21033;-90
2022/12/26 14:57:47;;;;;;;3.37;2.85;;;;;;;13.10;86.02;99865.88;3031803;78;20993;-91
2022/12/26 15:02:02;;;;;;;2.47;1.90;;;;;;;13.07;86.21;99856.84;3037289;78;21029;-88
2022/12/26 15:06:18;;;;;;;2.50;2.30;;;;;;;12.98;86.56;99858.59;3007601;77;21014;-89
2022/12/26 15:10:43;;;;;;;6.70;4.17;;;;;;;13.02;86.43;99875.63;2977925;78;20968;-87
2022/12/26 15:15:29;;;;;;;6.65;4.67;;;;;;;12.98;86.71;99867.93;2981923;78;20984;-89
2022/12/26 15:20:18;;;;;;;12.60;6.17;;;;;;;12.91;87.26;99858.83;2988320;79;20992;-89
2022/12/26 15:24:57;;;;;;;5.78;5.10;;;;;;;12.89;87.64;99862.16;2990182;77;21242;-89
2022/12/26 15:29:19;;;;;;;8.10;4.33;;;;;;;12.87;87.97;99865.47;2997279;77;21015;-87
2022/12/26 15:33:41;;;;;;;3.60;2.67;;;;;;;12.88;87.81;99872.48;2991423;77;34583;-87
2022/12/26 15:38:20;;;;;;;5.05;3.65;;;;;;;12.83;87.83;99884.94;3027935;77;21037;-87
2022/12/26 15:42:48;;;;;;;7.12;3.22;;;;;;;12.88;88.95;99913.86;3019036;78;21021;-88
2022/12/26 15:47:13;;;;;;;5.65;3.52;;;;;;;12.55;94.41;99936.14;2972400;78;21007;-87
2022/12/26 15:51:47;;;;;;;8.08;4.65;;;;;;;12.02;97.95;99973.58;2973806;77;21506;-88
2022/12/26 15:56:17;;;;;;;3.80;3.00;;;;;;;11.73;100.00;99970.44;2953786;79;21519;-88
2022/12/26 16:00:32;;;;;;;6.83;3.40;;;;;;;11.35;100.00;99967.13;2807545;83;21053;-87
2022/12/26 16:04:44;;;;;;;5.75;3.25;;;;;;;11.29;100.00;99972.52;2813208;82;21138;-88
2022/12/26 16:09:11;;;;;;;5.72;2.87;;;;;;;11.19;100.00;99963.66;2802174;83;21098;-87
2022/12/26 16:13:21;;;;;;;7.95;2.70;;;;;;;11.19;100.00;99968.98;2839647;82;21041;-87
2022/12/26 16:17:21;;;;;;;4.33;1.30;;;;;;;11.27;100.00;99971.81;2807328;83;21434;-87
2022/12/26 16:25:51;;;;;;;1.62;1.20;;;;;;;11.38;100.00;99977.50;2785866;83;21013;-87
2022/12/26 16:29:55;;;;;;;;;;;;;;;11.43;99.49;99980.58;2856502;78;21019;-86
2022/12/26 16:33:58;;;;;;;2.22;1.50;;;;;;;11.43;98.61;99989.08;2955997;78;20116;-87
2022/12/26 16:38:03;;;;;;;2.58;1.40;;;;;;;11.39;98.22;99984.98;2982191;78;20991;-87
2022/12/26 16:42:09;;;;;;;0.78;0.55;;;;;;;11.33;97.81;99997.05;2978801;79;20999;-87
2022/12/26 16:46:12;;;;;;;;;;;;;;;11.28;97.83;100005.45;2963413;79;21007;-88
2022/12/26 16:50:18;;;;;;;8.03;1.67;;;;;;;11.29;98.03;99997.81;2983573;78;20482;-88
2022/12/26 16:54:27;;;;;;;4.97;2.72;;;;;;;11.29;98.91;99995.15;2975174;79;21554;-88
2022/12/26 16:58:35;;;;;;;4.53;2.80;;;;;;;11.26;100.00;100000.75;3003916;76;20955;-87
2022/12/26 17:02:41;;;;;;;4.55;2.83;;;;;;;11.27;100.00;100000.25;2984256;77;21566;-86
2022/12/26 17:07:02;;;;;;;3.12;2.33;;;;;;;11.30;100.00;99988.02;2964670;79;20974;-86
2022/12/26 17:11:03;;;;;;;4.33;2.20;;;;;;;11.36;100.00;99983.94;2997067;77;20994;-87
2022/12/26 17:15:07;;;;;;;6.47;3.22;;;;;;;11.41;100.00;99991.05;2997159;77;21015;-89
2022/12/26 17:19:20;;;;;;;3.02;2.05;;;;;;;11.49;100.00;99996.98;3002764;78;20968;-88
2022/12/26 17:23:38;;;;;;;4.67;2.50;;;;;;;11.54;100.00;99992.92;2993869;77;21022;-88
2022/12/26 17:27:40;;;;;;;3.10;2.27;;;;;;;11.57;100.00;99998.48;2995374;77;21018;-88
2022/12/26 17:31:43;;;;;;;3.27;2.75;;;;;;;11.65;99.56;100009.77;2998180;77;21023;-89
2022/12/26 17:35:59;;;;;;;3.83;2.27;;;;;;;11.69;98.23;100005.84;2991364;77;21570;-89
2022/12/26 17:40:09;;;;;;;12.60;2.72;;;;;;;11.71;97.81;100006.53;2980810;79;20983;-89
2022/12/26 17:44:36;;;;;;;4.80;2.30;;;;;;;11.66;96.39;100002.13;2986906;78;21053;-89
2022/12/26 17:48:37;;;;;;;;;;;;;;;11.60;96.46;100013.35;2927718;79;20988;-88
2022/12/26 17:52:38;;;;;;;4.25;3.25;;;;;;;11.58;96.81;100012.97;2866655;81;20114;-89
2022/12/26 17:56:40;;;;;;;3.20;2.60;;;;;;;11.61;96.42;100012.37;2830449;82;21098;-89
2022/12/26 18:00:43;;;;;;;5.33;2.42;;;;;;;11.60;95.31;100014.69;2840754;82;21459;-89
2022/12/26 18:04:46;;;;;;;11.97;2.87;;;;;;;11.48;94.97;100005.48;2868851;81;21035;-88
2022/12/26 18:08:48;;;;;;;4.90;2.55;;;;;;;11.37;95.19;100006.92;2847723;82;21595;-88
2022/12/26 18:12:50;;;;;;;4.80;3.83;;;;;;;11.28;95.66;100014.77;2967342;79;20991;-88
2022/12/26 18:16:51;;;;;;;4.10;2.30;;;;;;;11.17;95.80;100005.55;2973906;79;21365;-91
2022/12/26 18:20:53;;;;;;;3.83;3.05;;;;;;;11.11;96.01;99994.13;2970426;79;21044;-87
2022/12/26 18:24:55;;;;;;;2.83;2.60;;;;;;;11.03;96.23;99986.00;2985629;76;21005;-88
2022/12/26 18:28:56;;;;;;;4.78;2.65;;;;;;;11.03;96.28;99996.14;3006927;78;20998;-89
2022/12/26 18:32:58;;;;;;;4.72;2.67;;;;;;;11.05;95.95;99996.84;2975906;79;21514;-89
2022/12/26 18:36:59;;;;;;;9.35;3.62;;;;;;;11.02;95.58;99991.80;2960459;79;20947;-89
2022/12/26 18:41:01;;;;;;;4.10;2.90;;;;;;;10.91;95.72;100003.39;3008968;78;20987;-89
2022/12/26 18:45:02;;;;;;;4.45;2.20;;;;;;;10.89;96.10;99994.70;2953915;79;20960;-89
2022/12/26 18:49:04;;;;;;;4.25;2.47;;;;;;;10.88;95.85;99987.70;2953301;79;21049;-88
2022/12/26 18:53:05;;;;;;;2.92;2.60;;;;;;;10.82;95.78;99996.23;3015972;78;20987;-88
2022/12/26 18:57:11;;;;;;;3.42;2.27;;;;;;;10.77;95.85;99995.30;3001600;78;21621;-89
2022/12/26 19:01:15;;;;;;;;;;;;;;;10.71;96.20;99998.50;2995565;78;20995;-89
2022/12/26 19:05:26;;;;;;;3.20;2.60;;;;;;;10.64;96.32;99992.87;3001814;78;20116;-89
2022/12/26 19:09:27;;;;;;;6.78;3.52;;;;;;;10.60;96.23;99984.78;2972496;78;20995;-90
2022/12/26 19:13:28;;;;;;;5.90;3.83;;;;;;;10.52;96.47;99987.27;2979812;78;21055;-89
2022/12/26 19:17:30;;;;;;;3.58;2.00;;;;;;;10.50;96.56;99990.05;2998502;77;21498;-89
2022/12/26 19:21:31;;;;;;;2.08;1.85;;;;;;;10.43;96.64;99988.91;2971647;77;21034;-90
2022/12/26 19:25:33;;;;;;;2.25;1.40;;;;;;;10.41;96.69;99994.84;2973235;77;21499;-90
2022/12/26 19:29:34;;;;;;;4.15;2.40;;;;;;;10.35;96.98;100001.50;3007157;78;20992;-86
2022/12/26 19:33:36;;;;;;;4.55;3.10;;;;;;;10.35;97.70;99999.34;3022622;76;21061;-88
2022/12/26 19:37:38;;;;;;;2.25;2.05;;;;;;;10.36;97.97;99985.90;3008530;76;20964;-88
2022/12/26 19:41:40;;;;;;;3.42;2.85;;;;;;;10.43;97.73;99972.48;3028509;78;21011;-89
2022/12/26 19:45:41;;;;;;;5.40;3.67;;;;;;;10.53;97.55;99972.52;2947318;78;21621;-89
2022/12/26 19:49:43;;;;;;;2.35;2.15;;;;;;;10.62;97.30;99964.70;3025594;76;21050;-89
2022/12/26 19:53:45;;;;;;;5.15;3.30;;;;;;;10.69;96.79;99964.04;3007467;78;20988;-89
2022/12/26 19:57:47;;;;;;;5.70;3.45;;;;;;;10.71;96.40;99964.74;3024747;78;20991;-89
2022/12/26 20:01:48;;;;;;;4.28;3.35;;;;;;;10.76;96.16;99962.16;3009002;78;21507;-88
2022/12/26 20:05:49;;;;;;;4.12;2.70;;;;;;;10.78;96.06;99962.86;3028277;78;21055;-88
2022/12/26 20:09:50;;;;;;;4.92;2.92;;;;;;;10.83;95.73;99959.33;3027797;78;20944;-87
2022/12/26 20:13:52;;;;;;;4.95;2.27;;;;;;;10.91;95.74;99961.31;3026385;78;22121;-87
2022/12/26 20:17:53;;;;;;;4.30;2.62;;;;;;;10.96;95.22;99949.27;2976104;78;21496;-87
2022/12/26 20:21:55;;;;;;;2.35;2.05;;;;;;;11.03;95.05;99947.41;3012530;78;21094;-87
2022/12/26 20:26:07;;;;;;;2.72;2.15;;;;;;;11.04;94.77;99947.75;3028274;78;21007;-87
2022/12/26 20:30:10;;;;;;;1.32;1.20;;;;;;;11.10;94.36;99941.39;2985608;78;21017;-88
2022/12/26 20:34:11;;;;;;;3.05;2.25;;;;;;;11.14;93.71;99951.26;3024876;76;21018;-89
2022/12/26 20:38:12;;;;;;;2.58;1.80;;;;;;;11.16;93.34;99953.29;3009178;78;21003;-88
2022/12/26 20:42:15;;;;;;;3.47;1.92;;;;;;;11.24;93.14;99953.45;3035768;78;20967;-88
2022/12/26 20:46:20;;;;;;;4.25;2.60;;;;;;;11.29;92.51;99952.55;3029968;78;21510;-88
2022/12/26 20:50:21;;;;;;;9.83;4.43;;;;;;;11.34;92.36;99947.28;2996578;78;20999;-90
2022/12/26 20:54:23;;;;;;;2.72;2.15;;;;;;;11.33;92.48;99950.93;2993444;77;20992;-88
2022/12/26 20:58:29;;;;;;;6.15;3.22;;;;;;;11.35;92.29;99941.84;2981354;79;21007;-87
2022/12/26 21:02:30;;;;;;;3.08;1.92;;;;;;;11.27;91.99;99938.53;2991122;77;21650;-88
2022/12/26 21:06:35;;;;;;;4.22;2.33;;;;;;;11.31;91.71;99948.42;2981734;77;21042;-89
2022/12/26 21:10:36;;;;;;;4.65;2.85;;;;;;;11.33;91.98;99956.26;2986579;78;20999;-89
2022/12/26 21:14:38;;;;;;;4.20;2.83;;;;;;;11.36;92.02;99955.97;3002442;77;21054;-88
2022/12/26 21:18:40;;;;;;;4.40;3.92;;;;;;;11.34;91.48;99963.27;2994659;78;21007;-89
2022/12/26 21:22:41;;;;;;;6.37;3.60;;;;;;;11.34;91.72;99971.25;3004390;77;21772;-87
2022/12/26 21:26:43;;;;;;;4.03;2.45;;;;;;;11.34;91.16;99977.91;2988335;77;20999;-88
2022/12/26 21:30:44;;;;;;;4.42;2.80;;;;;;;11.26;91.36;99972.80;3013410;78;20991;-88
2022/12/26 21:34:45;;;;;;;5.40;2.80;;;;;;;11.22;91.86;99963.41;2929358;79;21664;-87
2022/12/26 21:38:47;;;;;;;4.97;3.62;;;;;;;11.19;92.52;99961.50;3001552;78;20944;-88
2022/12/26 21:42:48;;;;;;;6.08;3.20;;;;;;;11.16;92.92;99970.59;2998415;78;22207;-88
2022/12/26 21:46:50;;;;;;;8.33;3.47;;;;;;;11.11;93.21;99962.19;2986409;77;21007;-89
2022/12/26 21:50:51;;;;;;;7.55;4.53;;;;;;;11.10;93.16;99974.67;3002012;78;21078;-88